Flight Track Log - Related Links

Times and Time Zones

All times are in EDT time to prevent confusion due to time zone crossing. See the N775NC flight status page for this flight to view local times or setup timezone preferences in your user account.

Time Position Orientation Groundspeed Altitude Reporting Facility
EDT Latitude Longitude Course Direction KTS MPH feet Rate Location/Type
Thu 07:51:23 AM 39.8667 -75.2833 270° West 169 194 800  Level Philadelphia TRACON
Thu 07:53:44 AM 39.8117 -75.4650 249° West 252 290 4,900 2,030 Climbing New York Center
Thu 07:54:00 AM 39.9068 -75.7258 258° West  Level FlightAware Approximate
Thu 07:54:44 AM 39.8353 -75.5506 290° West 246 283 7,600  Level New York Center
Thu 07:55:00 AM 39.9001 -75.8523 270° West  Level FlightAware Approximate
Thu 07:55:41 AM 39.8847 -75.6189 313° West 240 276 9,600  Level New York Center
Thu 07:56:00 AM 39.9000 -75.9797 270° West  Level FlightAware Approximate
Thu 07:56:43 AM 39.9078 -75.7125 288° West 260 299 11,700  Level New York Center
Thu 07:57:43 AM 39.9100 -75.8072 272° West 266 306 13,300 1,300 Climbing New York Center
Thu 07:58:43 AM 39.9119 -75.9103 271° West 283 326 14,300 1,190 Climbing New York Center
Thu 07:59:44 AM 39.9114 -76.0131 270° West 306 352 15,700 1,525 Climbing New York Center
Thu 08:00:41 AM 39.9097 -76.1456 269° West 327 376 17,300 1,424 Climbing New York Center
Thu 08:01:42 AM 39.9106 -76.2647 271° West 327 376 18,500 1,190 Climbing New York Center
Thu 08:02:42 AM 39.9086 -76.3919 269° West 334 384 19,700 1,289 Climbing New York Center
Thu 08:03:43 AM 39.9028 -76.5158 267° West 340 391 21,100 1,279 Climbing New York Center
Thu 08:04:44 AM 39.8967 -76.6400 266° West 345 397 22,300 1,160 Climbing New York Center
Thu 08:05:42 AM 39.8900 -76.7719 266° West 350 403 23,400 966 Climbing New York Center
Thu 08:06:42 AM 39.8836 -76.8958 266° West 355 409 24,200 793 Climbing New York Center
Thu 08:07:43 AM 39.8786 -77.0281 267° West 360 414 25,000 738 Climbing New York Center
Thu 08:08:44 AM 39.8839 -77.1639 273° West 371 427 25,700 655 Climbing New York Center
Thu 08:09:42 AM 39.8844 -77.3075 270° West 383 441 26,300 756 Climbing New York Center
Thu 08:10:43 AM 39.8931 -77.4517 274° West 396 456 27,200 767 Climbing New York Center
Thu 08:11:55 AM 39.9328 -77.6264 287° West 404 465 28,000 364 Climbing Cleveland Center
Thu 08:12:55 AM 39.9594 -77.7689 284° West 414 476 28,000  Level Cleveland Center
Thu 08:13:55 AM 39.9775 -77.9144 279° West 414 476 28,000  Level Cleveland Center
Thu 08:14:55 AM 39.9956 -78.0600 279° West 414 476 28,000  Level Cleveland Center
Thu 08:15:55 AM 40.0214 -78.2028 283° West 407 468 28,000  Level Cleveland Center
Thu 08:16:55 AM 40.0367 -78.3325 279° West 407 468 28,000  Level Cleveland Center
Thu 08:17:55 AM 40.0600 -78.4728 282° West 407 468 28,000  Level Cleveland Center
Thu 08:18:55 AM 40.0836 -78.6186 282° West 407 468 28,000  Level Cleveland Center
Thu 08:19:55 AM 40.1317 -78.7556 295° West 407 468 28,000  Level Cleveland Center
Thu 08:20:55 AM 40.1900 -78.8844 301° West 413 475 28,000  Level Cleveland Center
Thu 08:21:55 AM 40.2400 -79.0219 296° West 418 481 28,000  Level Cleveland Center
Thu 08:22:55 AM 40.2939 -79.1567 298° West 418 481 28,000  Level Cleveland Center
Thu 08:23:55 AM 40.3456 -79.2944 296° West 418 481 28,000  Level Cleveland Center
Thu 08:24:55 AM 40.4011 -79.4297 298° West 424 488 28,000  Level Cleveland Center
Thu 08:25:55 AM 40.4567 -79.5597 299° West 418 481 28,000  Level Cleveland Center
Thu 08:26:55 AM 40.5097 -79.6900 298° West 413 475 28,000  Level Cleveland Center
Thu 08:27:55 AM 40.5711 -79.8178 302° West 408 470 28,000  Level Cleveland Center
Thu 08:28:55 AM 40.6283 -79.9456 301° West 408 470 28,000  Level Cleveland Center
Thu 08:29:55 AM 40.6872 -80.0903 298° West 408 470 28,000  Level Cleveland Center
Thu 08:30:55 AM 40.7294 -80.2269 292° West 408 470 28,000  Level Cleveland Center
Thu 08:31:55 AM 40.7717 -80.3692 291° West 403 464 28,000  Level Cleveland Center
Thu 08:32:55 AM 40.8156 -80.5008 294° West 403 464 28,000  Level Cleveland Center
Thu 08:33:55 AM 40.8550 -80.6381 291° West 408 470 28,000  Level Cleveland Center
Thu 08:34:55 AM 40.8967 -80.7561 295° West 408 470 28,000  Level Cleveland Center
Thu 08:35:55 AM 40.9361 -80.8964 290° West 403 464 28,000  Level Cleveland Center
Thu 08:36:55 AM 40.9794 -81.0314 293° West 403 464 28,000 -250 Level Cleveland Center
Thu 08:37:55 AM 40.9600 -81.1769 260° West 395 455 27,500 -800 Descending Cleveland Center
Thu 08:38:55 AM 40.9217 -81.3031 248° West 375 432 26,400 -1,100 Descending Cleveland Center
Thu 08:39:55 AM 40.9000 -81.4292 257° West 360 414 25,300 -1,050 Descending Cleveland Center
Thu 08:40:55 AM 40.9133 -81.5667 277° West 354 407 24,300 -650 Descending Cleveland Center
Thu 08:41:55 AM 40.9206 -81.6961 274° West 349 402 24,000 -150 Descending Cleveland Center
Thu 08:42:55 AM 40.9275 -81.8253 274° West 354 407 24,000  Level Cleveland Center
Thu 08:43:55 AM 40.9764 -81.9336 301° West 327 376 24,000  Level Cleveland Center
Thu 08:44:55 AM 41.0697 -81.9822 339° North 337 388 24,000  Level Cleveland Center
Thu 08:45:55 AM 41.1669 -82.0311 339° North 361 415 24,000  Level Cleveland Center
Thu 08:46:55 AM 41.2433 -82.0908 330° Northwest 361 415 24,000 -1,100 Level Cleveland Center
Thu 08:47:55 AM 41.3278 -82.1703 325° Northwest 361 415 21,800 -2,350 Descending Cleveland Center
Thu 08:48:55 AM 41.4142 -82.2528 324° Northwest 379 436 19,300 -2,350 Descending Cleveland Center
Thu 08:49:55 AM 41.4728 -82.3706 304° West 353 406 17,100 -2,450 Descending Cleveland Center
Thu 08:50:55 AM 41.5253 -82.4775 303° West 362 417 14,400 -2,400 Descending Cleveland Center
Thu 08:51:55 AM 41.5906 -82.5683 314° West 350 403 12,300 -1,385 Descending Cleveland Center
Thu 08:52:39 AM 41.6394 -82.6281 318° Northwest 304 350 12,000 -171 Descending Cleveland Center
Thu 08:53:40 AM 41.6964 -82.7050 315° West 281 323 12,000  Level Cleveland Center
Thu 08:54:55 AM 41.7636 -82.7908 316° Northwest 280 322 12,000 -49 Level Cleveland Center
Thu 08:55:42 AM 41.8086 -82.8397 321° Northwest 252 290 11,900 -600 Descending Cleveland Center
Thu 08:56:55 AM 41.8614 -82.9056 317° Northwest 223 257 10,800 -513 Descending Cleveland Center
Thu 08:57:39 AM 41.8917 -82.9542 310° West 206 237 10,900 108 Climbing Cleveland Center
Thu 08:58:46 AM 41.9236 -83.0250 301° West 214 246 11,000  Climbing Cleveland Center
Thu 08:59:47 AM 41.9617 -83.0908 308° West 212 244 10,900  Descending Cleveland Center
Thu 09:00:43 AM 41.9917 -83.1478 305° West 203 234 11,000 51 Climbing Cleveland Center
Thu 09:01:44 AM 42.0278 -83.2108 308° West 208 239 11,000 -52 Level Cleveland Center
Thu 09:02:39 AM 42.0819 -83.2186 354° North 217 250 10,900 -517 Descending Cleveland Center
Thu 09:03:40 AM 42.1397 -83.2406 344° North 218 251 10,000 -1,219 Descending Cleveland Center
Thu 09:04:47 AM 42.2031 -83.2069 21° North 223 257 8,300 -1,426 Descending Cleveland Center
Thu 09:05:42 AM 42.2539 -83.1725 27° Northeast 219 252 7,100 -1,328 Descending Cleveland Center
Thu 09:06:49 AM 42.3172 -83.1358 23° Northeast 216 249 5,600 -1,426 Descending Cleveland Center
Thu 09:07:44 AM 42.3519 -83.1653 328° Northwest 180 207 4,200 -1,333 Descending Cleveland Center
Thu 09:08:46 AM 42.3339 -83.2292 249° West 174 200 3,000 -933 Descending Cleveland Center
Thu 09:09:59 AM 42.2889 -83.2806 220° Southwest 176 203 2,100 -761 Descending Cleveland Center
Thu 09:11:00 AM 42.2506 -83.3125 212° Southwest 144 166 1,300 -787 Descending Cleveland Center

Login

Don't have an account? Register now (free) for customized features, flight alerts, and more!